Bookmark and Share
Track history (hours):
 

Jennifer Rickmers

Last reported at 2014-Apr-23 15:33 UTC. Time now 2014-Apr-23 15:44 UTC.
Position N 50°34' E 000°30'.

Length 294 m; draft 12.4 m.

Type: Ship (hazmat cat A). MMSI: 636091044.

NotesDate/timePositionNaut miles runAvg speedWind from/ knotsBaromVisibWave heightAir tempDewpointWater temp
2014-Apr-23 15:33N 50°34' E 000°30'1716.9
2014-Apr-23 14:33N 50°44' E 000°52'1615.7
2014-Apr-23 13:33N 50°54' E 001°10'1818.2
2014-Apr-23 12:34N 51°06' E 001°32'2121.3
2014-Apr-23 11:34N 51°22' E 001°54'1816.0
2014-Apr-23 10:27N 51°36' E 002°12'5613.9
2014-Apr-23 06:26N 52°19' E 003°09'5215.6
2014-Apr-23 03:05N 52°60' E 004°04'815.8
2014-Apr-23 02:33N 53°05' E 004°14'1515.0
2014-Apr-23 01:33N 53°17' E 004°29'1413.8
2014-Apr-23 00:33N 53°29' E 004°41'1414.1
2014-Apr-22 23:34N 53°34' E 005°03'1414.2
2014-Apr-22 22:33N 53°39' E 005°25'1514.7
2014-Apr-22 21:34N 53°44' E 005°49'1615.8
2014-Apr-22 20:33N 53°48' E 006°14'3316.2
2014-Apr-22 18:32N 53°57' E 007°08'1716.9
2014-Apr-22 17:33N 53°60' E 007°36'1414.4
2014-Apr-22 16:34N 53°52' E 007°56'1615.5
2014-Apr-22 15:33N 53°43' E 008°18'1111.5
2014-Apr-22 14:33N 53°35' E 008°32'0 0.3
2014-Apr-22 13:32N 53°35' E 008°32'0 0.0
2014-Apr-22 12:32N 53°35' E 008°32'0 0.0
2014-Apr-22 11:32N 53°35' E 008°32'0 0.0
2014-Apr-22 10:29N 53°35' E 008°32'0 0.0
2014-Apr-22 09:32N 53°35' E 008°32'0 0.0
2014-Apr-22 08:32N 53°35' E 008°32'0 0.0
2014-Apr-22 07:32N 53°35' E 008°32'0 0.0
2014-Apr-22 06:32N 53°35' E 008°32'0 0.0
2014-Apr-22 05:29N 53°35' E 008°32'0 0.0
2014-Apr-22 04:32N 53°35' E 008°32'0 0.0
2014-Apr-22 03:32N 53°35' E 008°32'0 0.0
2014-Apr-22 02:32N 53°35' E 008°32'0 0.0
2014-Apr-22 01:32N 53°35' E 008°32'0 0.0
2014-Apr-22 00:32N 53°35' E 008°32'0 0.0
2014-Apr-21 23:32N 53°35' E 008°32'0 0.0
2014-Apr-21 22:32N 53°35' E 008°32'0 0.0
2014-Apr-21 21:32N 53°35' E 008°32'0 0.0
2014-Apr-21 20:31N 53°35' E 008°32'0 0.0
2014-Apr-21 19:31N 53°35' E 008°32'0 0.0
2014-Apr-21 18:33N 53°35' E 008°32'0 0.0
2014-Apr-21 17:33N 53°35' E 008°32'0 0.0
2014-Apr-21 16:33N 53°35' E 008°32'5 5.0
2014-Apr-21 15:34N 53°38' E 008°26'1615.8
2014-Apr-21 14:34N 53°49' E 008°07'1312.5
2014-Apr-21 13:33N 53°53' E 007°46'1313.1
2014-Apr-21 12:34N 53°54' E 007°24'2520.6
2014-Apr-21 11:19N 53°49' E 006°42'1721.4
2014-Apr-21 10:33N 53°45' E 006°15'2121.4
2014-Apr-21 09:34N 53°37' E 005°41'2221.6
2014-Apr-21 08:34N 53°31' E 005°07'2120.8
2014-Apr-21 07:33N 53°19' E 004°38'2222.0
2014-Apr-21 06:34N 52°60' E 004°20'2121.3
2014-Apr-21 05:34N 52°42' E 003°59'2221.5
2014-Apr-21 04:34N 52°26' E 003°37'2420.4
2014-Apr-21 03:24N 52°03' E 003°24'1619.3
2014-Apr-21 02:33N 51°48' E 003°17'1211.9
2014-Apr-21 01:33N 51°37' E 003°10'1313.2
2014-Apr-21 00:33N 51°25' E 003°01'1615.5
2014-Apr-20 23:33N 51°25' E 003°26'1111.4
2014-Apr-20 22:34N 51°23' E 003°44'1111.5
2014-Apr-20 21:33N 51°24' E 004°02'10 9.8
2014-Apr-20 20:34N 51°21' E 004°17'0 0.2
2014-Apr-20 19:34N 51°21' E 004°17'2 2.3
2014-Apr-20 18:33N 51°20' E 004°20'0 0.0
2014-Apr-20 17:33N 51°20' E 004°21'0 0.0
2014-Apr-20 16:33N 51°20' E 004°21'0 0.0
2014-Apr-20 15:31N 51°20' E 004°21'0 0.0
2014-Apr-20 14:31N 51°20' E 004°21'0 0.0
2014-Apr-20 13:31N 51°20' E 004°20'0 0.0
2014-Apr-20 12:31N 51°20' E 004°21'0 0.0
2014-Apr-20 11:31N 51°20' E 004°21'0 0.0
2014-Apr-20 10:25N 51°20' E 004°21'0 0.0
2014-Apr-20 09:31N 51°20' E 004°21'0 0.0
2014-Apr-20 08:31N 51°20' E 004°21'0 0.0
2014-Apr-20 07:28N 51°20' E 004°20'0 0.0
2014-Apr-20 06:31N 51°20' E 004°21'0 0.0
2014-Apr-20 05:31N 51°20' E 004°21'0 0.0
2014-Apr-20 04:31N 51°20' E 004°21'0 0.0
2014-Apr-20 03:31N 51°20' E 004°21'0 0.0
2014-Apr-20 02:33N 51°20' E 004°21'0 0.0
2014-Apr-20 01:33N 51°20' E 004°21'0 0.0
2014-Apr-20 00:33N 51°20' E 004°21'0 0.0
2014-Apr-19 23:33N 51°20' E 004°21'0 0.0
2014-Apr-19 22:33N 51°20' E 004°21'0 0.0
2014-Apr-19 21:33N 51°20' E 004°21'0 0.0
2014-Apr-19 20:33N 51°20' E 004°21'0 0.1
2014-Apr-19 19:33N 51°20' E 004°21'0 0.1
2014-Apr-19 18:33N 51°20' E 004°21'0 0.0
2014-Apr-19 17:33N 51°20' E 004°21'0 0.0
2014-Apr-19 16:33N 51°20' E 004°20'0 0.0
2014-Apr-19 15:33N 51°20' E 004°21'0 0.0
2014-Apr-19 14:30N 51°20' E 004°21'0 0.0
2014-Apr-19 13:33N 51°20' E 004°21'0 0.0
2014-Apr-19 12:30N 51°20' E 004°21'0 0.0
2014-Apr-19 11:33N 51°20' E 004°21'0 0.0
2014-Apr-19 10:30N 51°20' E 004°21'0 0.0
2014-Apr-19 09:33N 51°20' E 004°21'0 0.0
2014-Apr-19 08:33N 51°20' E 004°21'0 0.0
2014-Apr-19 07:33N 51°20' E 004°21'0 0.0
2014-Apr-19 06:33N 51°20' E 004°21'0 0.0
2014-Apr-19 05:33N 51°20' E 004°20'0 0.0
2014-Apr-19 04:33N 51°20' E 004°21'0 0.0
2014-Apr-19 03:33N 51°20' E 004°21'2 1.8
2014-Apr-19 02:33N 51°20' E 004°18'1 0.7
2014-Apr-19 01:34N 51°21' E 004°17'0 0.1
2014-Apr-19 00:33N 51°21' E 004°17'6 6.4
2014-Apr-18 23:33N 51°22' E 004°07'8 8.3
2014-Apr-18 22:33N 51°21' E 003°54'1110.7
2014-Apr-18 21:33N 51°26' E 003°38'1212.2
2014-Apr-18 20:33N 51°24' E 003°19'1514.9
2014-Apr-18 19:33N 51°22' E 002°55'1111.4
2014-Apr-18 18:33N 51°22' E 002°37'1414.1
2014-Apr-18 17:33N 51°17' E 002°16'1818.4
2014-Apr-18 16:34N 51°09' E 001°50'2120.0
2014-Apr-18 15:32N 50°54' E 001°27'2019.8
2014-Apr-18 14:32N 50°37' E 001°12'2620.5
2014-Apr-18 13:15N 50°26' E 000°34'39119.7
2014-Apr-17 17:27N 49°05' W 009°18'  

Dump ship's entire track history

sailing weather and tide predictions

Jennifer Rickmers — A8IV7 — position and weather